sensor_id;sensor_type;location;lat;lon;timestamp;temperature;humidity
49413;DHT22;35493;50.276;9.372;2023-01-13T00:00:14;9.40;89.20
49413;DHT22;35493;50.276;9.372;2023-01-13T00:02:41;9.40;89.20
49413;DHT22;35493;50.276;9.372;2023-01-13T00:05:08;9.40;89.20
49413;DHT22;35493;50.276;9.372;2023-01-13T00:07:39;9.30;89.20
49413;DHT22;35493;50.276;9.372;2023-01-13T00:10:08;9.40;89.10
49413;DHT22;35493;50.276;9.372;2023-01-13T00:12:42;9.40;89.10
49413;DHT22;35493;50.276;9.372;2023-01-13T00:15:17;9.40;89.00
49413;DHT22;35493;50.276;9.372;2023-01-13T00:17:44;9.40;88.90
49413;DHT22;35493;50.276;9.372;2023-01-13T00:20:13;9.40;89.00
49413;DHT22;35493;50.276;9.372;2023-01-13T00:22:40;9.40;88.90
49413;DHT22;35493;50.276;9.372;2023-01-13T00:25:07;9.40;89.00
49413;DHT22;35493;50.276;9.372;2023-01-13T00:27:35;9.40;88.90
49413;DHT22;35493;50.276;9.372;2023-01-13T00:30:03;9.40;88.90
49413;DHT22;35493;50.276;9.372;2023-01-13T00:32:31;9.40;88.90
49413;DHT22;35493;50.276;9.372;2023-01-13T00:34:58;9.40;88.80
49413;DHT22;35493;50.276;9.372;2023-01-13T00:37:25;9.40;88.80
49413;DHT22;35493;50.276;9.372;2023-01-13T00:39:52;9.40;88.80
49413;DHT22;35493;50.276;9.372;2023-01-13T00:42:19;9.50;88.80
49413;DHT22;35493;50.276;9.372;2023-01-13T00:45:04;9.40;88.80
49413;DHT22;35493;50.276;9.372;2023-01-13T00:47:33;9.40;88.70
49413;DHT22;35493;50.276;9.372;2023-01-13T00:50:00;9.40;88.70
49413;DHT22;35493;50.276;9.372;2023-01-13T00:52:28;9.40;88.60
49413;DHT22;35493;50.276;9.372;2023-01-13T00:54:54;9.40;88.60
49413;DHT22;35493;50.276;9.372;2023-01-13T00:57:23;9.40;88.70
49413;DHT22;35493;50.276;9.372;2023-01-13T00:59:49;9.40;88.70
49413;DHT22;35493;50.276;9.372;2023-01-13T01:02:16;9.50;88.60
49413;DHT22;35493;50.276;9.372;2023-01-13T01:04:45;9.50;88.60
49413;DHT22;35493;50.276;9.372;2023-01-13T01:07:12;9.50;88.40
49413;DHT22;35493;50.276;9.372;2023-01-13T01:09:38;9.50;88.50
49413;DHT22;35493;50.276;9.372;2023-01-13T01:12:06;9.50;88.40
49413;DHT22;35493;50.276;9.372;2023-01-13T01:14:33;9.50;88.50
49413;DHT22;35493;50.276;9.372;2023-01-13T01:17:00;9.50;88.50
49413;DHT22;35493;50.276;9.372;2023-01-13T01:19:27;9.50;88.50
49413;DHT22;35493;50.276;9.372;2023-01-13T01:21:55;9.50;88.50
49413;DHT22;35493;50.276;9.372;2023-01-13T01:24:22;9.50;88.50
49413;DHT22;35493;50.276;9.372;2023-01-13T01:26:48;9.50;88.50
49413;DHT22;35493;50.276;9.372;2023-01-13T01:29:15;9.50;88.40
49413;DHT22;35493;50.276;9.372;2023-01-13T01:31:42;9.50;88.50
49413;DHT22;35493;50.276;9.372;2023-01-13T01:34:10;9.50;88.40
49413;DHT22;35493;50.276;9.372;2023-01-13T01:36:38;9.50;88.30
49413;DHT22;35493;50.276;9.372;2023-01-13T01:39:09;9.60;88.20
49413;DHT22;35493;50.276;9.372;2023-01-13T01:41:36;9.60;88.20
49413;DHT22;35493;50.276;9.372;2023-01-13T01:44:07;9.60;88.20
49413;DHT22;35493;50.276;9.372;2023-01-13T01:46:35;9.60;88.20
49413;DHT22;35493;50.276;9.372;2023-01-13T01:49:07;9.60;88.10
49413;DHT22;35493;50.276;9.372;2023-01-13T01:51:39;9.60;88.10
49413;DHT22;35493;50.276;9.372;2023-01-13T01:54:11;9.60;88.10
49413;DHT22;35493;50.276;9.372;2023-01-13T01:56:40;9.60;88.00
49413;DHT22;35493;50.276;9.372;2023-01-13T01:59:08;9.60;88.00
49413;DHT22;35493;50.276;9.372;2023-01-13T02:01:36;9.60;88.00
49413;DHT22;35493;50.276;9.372;2023-01-13T02:04:08;9.60;87.90
49413;DHT22;35493;50.276;9.372;2023-01-13T02:06:37;9.60;87.90
49413;DHT22;35493;50.276;9.372;2023-01-13T02:09:04;9.60;87.90
49413;DHT22;35493;50.276;9.372;2023-01-13T02:11:35;9.60;87.90
49413;DHT22;35493;50.276;9.372;2023-01-13T02:14:16;9.70;87.90
49413;DHT22;35493;50.276;9.372;2023-01-13T02:16:49;9.60;87.90
49413;DHT22;35493;50.276;9.372;2023-01-13T02:22:43;9.60;87.90
49413;DHT22;35493;50.276;9.372;2023-01-13T02:28:42;9.60;88.40
49413;DHT22;35493;50.276;9.372;2023-01-13T02:31:39;9.60;88.50
49413;DHT22;35493;50.276;9.372;2023-01-13T02:34:10;9.60;88.60
49413;DHT22;35493;50.276;9.372;2023-01-13T02:36:46;9.60;88.90
49413;DHT22;35493;50.276;9.372;2023-01-13T02:39:21;9.60;89.00
49413;DHT22;35493;50.276;9.372;2023-01-13T02:41:53;9.60;89.10
49413;DHT22;35493;50.276;9.372;2023-01-13T02:44:41;9.60;89.10
49413;DHT22;35493;50.276;9.372;2023-01-13T02:47:15;9.60;89.10
49413;DHT22;35493;50.276;9.372;2023-01-13T02:49:47;9.60;89.10
49413;DHT22;35493;50.276;9.372;2023-01-13T02:52:19;9.50;89.10
49413;DHT22;35493;50.276;9.372;2023-01-13T02:54:51;9.60;89.00
49413;DHT22;35493;50.276;9.372;2023-01-13T02:57:20;9.60;88.80
49413;DHT22;35493;50.276;9.372;2023-01-13T02:59:48;9.50;88.60
49413;DHT22;35493;50.276;9.372;2023-01-13T03:02:18;9.60;88.50
49413;DHT22;35493;50.276;9.372;2023-01-13T03:04:52;9.60;88.40
49413;DHT22;35493;50.276;9.372;2023-01-13T03:07:34;9.60;88.40
49413;DHT22;35493;50.276;9.372;2023-01-13T03:10:09;9.60;88.20
49413;DHT22;35493;50.276;9.372;2023-01-13T03:12:44;9.60;88.00
49413;DHT22;35493;50.276;9.372;2023-01-13T03:15:23;9.60;88.00
49413;DHT22;35493;50.276;9.372;2023-01-13T03:18:06;9.70;87.90
49413;DHT22;35493;50.276;9.372;2023-01-13T03:20:39;9.60;87.80
49413;DHT22;35493;50.276;9.372;2023-01-13T03:23:14;9.70;87.70
49413;DHT22;35493;50.276;9.372;2023-01-13T03:25:49;9.70;87.70
49413;DHT22;35493;50.276;9.372;2023-01-13T03:28:23;9.70;87.60
49413;DHT22;35493;50.276;9.372;2023-01-13T03:30:55;9.70;87.60
49413;DHT22;35493;50.276;9.372;2023-01-13T03:33:32;9.70;87.50
49413;DHT22;35493;50.276;9.372;2023-01-13T03:36:02;9.70;87.50
49413;DHT22;35493;50.276;9.372;2023-01-13T03:38:32;9.70;87.50
49413;DHT22;35493;50.276;9.372;2023-01-13T03:41:03;9.70;87.40
49413;DHT22;35493;50.276;9.372;2023-01-13T03:43:34;9.70;87.40
49413;DHT22;35493;50.276;9.372;2023-01-13T03:46:25;9.70;87.50
49413;DHT22;35493;50.276;9.372;2023-01-13T03:48:56;9.70;87.50
49413;DHT22;35493;50.276;9.372;2023-01-13T03:51:27;9.70;87.50
49413;DHT22;35493;50.276;9.372;2023-01-13T03:53:58;9.70;87.60
49413;DHT22;35493;50.276;9.372;2023-01-13T03:56:30;9.70;87.70
49413;DHT22;35493;50.276;9.372;2023-01-13T03:59:02;9.70;87.80
49413;DHT22;35493;50.276;9.372;2023-01-13T04:01:34;9.70;87.80
49413;DHT22;35493;50.276;9.372;2023-01-13T04:04:05;9.70;87.80
49413;DHT22;35493;50.276;9.372;2023-01-13T04:06:39;9.70;87.70
49413;DHT22;35493;50.276;9.372;2023-01-13T04:09:13;9.70;87.60
49413;DHT22;35493;50.276;9.372;2023-01-13T04:11:43;9.70;87.60
49413;DHT22;35493;50.276;9.372;2023-01-13T04:14:13;9.70;87.70
49413;DHT22;35493;50.276;9.372;2023-01-13T04:16:41;9.70;87.70
49413;DHT22;35493;50.276;9.372;2023-01-13T04:19:10;9.70;87.60
49413;DHT22;35493;50.276;9.372;2023-01-13T04:21:37;9.70;87.60
49413;DHT22;35493;50.276;9.372;2023-01-13T04:24:04;9.70;87.60
49413;DHT22;35493;50.276;9.372;2023-01-13T04:26:31;9.70;87.60
49413;DHT22;35493;50.276;9.372;2023-01-13T04:28:58;9.70;87.60
49413;DHT22;35493;50.276;9.372;2023-01-13T04:31:25;9.70;87.60
49413;DHT22;35493;50.276;9.372;2023-01-13T04:33:51;9.70;87.50
49413;DHT22;35493;50.276;9.372;2023-01-13T04:36:20;9.70;87.40
49413;DHT22;35493;50.276;9.372;2023-01-13T04:38:49;9.80;87.40
49413;DHT22;35493;50.276;9.372;2023-01-13T04:41:16;9.80;87.30
49413;DHT22;35493;50.276;9.372;2023-01-13T04:43:43;9.70;87.30
49413;DHT22;35493;50.276;9.372;2023-01-13T04:46:10;9.80;87.20
49413;DHT22;35493;50.276;9.372;2023-01-13T04:48:37;9.80;87.30
49413;DHT22;35493;50.276;9.372;2023-01-13T04:51:04;9.80;87.30
49413;DHT22;35493;50.276;9.372;2023-01-13T04:53:32;9.80;87.30
49413;DHT22;35493;50.276;9.372;2023-01-13T04:55:59;9.80;87.20
49413;DHT22;35493;50.276;9.372;2023-01-13T04:58:27;9.80;87.30
49413;DHT22;35493;50.276;9.372;2023-01-13T05:00:53;9.80;87.20
49413;DHT22;35493;50.276;9.372;2023-01-13T05:03:21;9.80;87.20
49413;DHT22;35493;50.276;9.372;2023-01-13T05:05:50;9.80;87.20
49413;DHT22;35493;50.276;9.372;2023-01-13T05:08:17;9.80;87.10
49413;DHT22;35493;50.276;9.372;2023-01-13T05:10:45;9.80;87.10
49413;DHT22;35493;50.276;9.372;2023-01-13T05:13:14;9.90;87.10
49413;DHT22;35493;50.276;9.372;2023-01-13T05:15:59;9.80;87.10
49413;DHT22;35493;50.276;9.372;2023-01-13T05:18:43;9.80;87.00
49413;DHT22;35493;50.276;9.372;2023-01-13T05:21:10;9.80;87.00
49413;DHT22;35493;50.276;9.372;2023-01-13T05:23:58;9.90;87.00
49413;DHT22;35493;50.276;9.372;2023-01-13T05:26:43;9.90;87.00
49413;DHT22;35493;50.276;9.372;2023-01-13T05:29:09;9.90;86.90
49413;DHT22;35493;50.276;9.372;2023-01-13T05:31:36;9.90;86.90
49413;DHT22;35493;50.276;9.372;2023-01-13T05:34:03;9.90;87.00
49413;DHT22;35493;50.276;9.372;2023-01-13T05:36:30;9.90;87.10
49413;DHT22;35493;50.276;9.372;2023-01-13T05:38:57;9.90;87.10
49413;DHT22;35493;50.276;9.372;2023-01-13T05:41:24;9.90;87.10
49413;DHT22;35493;50.276;9.372;2023-01-13T05:44:10;9.90;87.00
49413;DHT22;35493;50.276;9.372;2023-01-13T05:46:36;9.90;87.10
49413;DHT22;35493;50.276;9.372;2023-01-13T05:49:05;9.90;87.20
49413;DHT22;35493;50.276;9.372;2023-01-13T05:51:31;9.90;87.40
49413;DHT22;35493;50.276;9.372;2023-01-13T05:53:58;9.90;87.50
49413;DHT22;35493;50.276;9.372;2023-01-13T05:56:25;9.90;87.90
49413;DHT22;35493;50.276;9.372;2023-01-13T05:58:52;9.80;88.20
49413;DHT22;35493;50.276;9.372;2023-01-13T06:01:21;9.80;88.60
49413;DHT22;35493;50.276;9.372;2023-01-13T06:03:48;9.80;88.80
49413;DHT22;35493;50.276;9.372;2023-01-13T06:06:15;9.80;89.10
49413;DHT22;35493;50.276;9.372;2023-01-13T06:08:41;9.70;88.60
49413;DHT22;35493;50.276;9.372;2023-01-13T06:11:08;9.60;87.90
49413;DHT22;35493;50.276;9.372;2023-01-13T06:13:35;9.40;87.80
49413;DHT22;35493;50.276;9.372;2023-01-13T06:16:02;9.50;87.90
49413;DHT22;35493;50.276;9.372;2023-01-13T06:18:31;9.50;87.80
49413;DHT22;35493;50.276;9.372;2023-01-13T06:21:00;9.50;87.80
49413;DHT22;35493;50.276;9.372;2023-01-13T06:23:27;9.40;87.60
49413;DHT22;35493;50.276;9.372;2023-01-13T06:26:00;9.40;87.70
49413;DHT22;35493;50.276;9.372;2023-01-13T06:28:27;9.40;87.80
49413;DHT22;35493;50.276;9.372;2023-01-13T06:30:57;9.40;87.70
49413;DHT22;35493;50.276;9.372;2023-01-13T06:33:28;9.30;87.80
49413;DHT22;35493;50.276;9.372;2023-01-13T06:35:59;9.20;87.90
49413;DHT22;35493;50.276;9.372;2023-01-13T06:38:29;9.30;87.50
49413;DHT22;35493;50.276;9.372;2023-01-13T06:40:57;9.20;87.00
49413;DHT22;35493;50.276;9.372;2023-01-13T06:43:24;9.20;86.80
49413;DHT22;35493;50.276;9.372;2023-01-13T06:45:51;9.20;86.40
49413;DHT22;35493;50.276;9.372;2023-01-13T06:48:21;9.20;86.80
49413;DHT22;35493;50.276;9.372;2023-01-13T06:50:49;9.20;86.50
49413;DHT22;35493;50.276;9.372;2023-01-13T06:53:17;9.20;86.60
49413;DHT22;35493;50.276;9.372;2023-01-13T06:55:45;9.10;86.40
49413;DHT22;35493;50.276;9.372;2023-01-13T06:58:11;9.00;87.20
49413;DHT22;35493;50.276;9.372;2023-01-13T07:00:38;9.00;87.30
49413;DHT22;35493;50.276;9.372;2023-01-13T07:03:09;9.00;87.40
49413;DHT22;35493;50.276;9.372;2023-01-13T07:05:36;9.00;87.50
49413;DHT22;35493;50.276;9.372;2023-01-13T07:08:03;9.00;87.50
49413;DHT22;35493;50.276;9.372;2023-01-13T07:10:33;9.00;87.30
49413;DHT22;35493;50.276;9.372;2023-01-13T07:13:02;9.00;87.20
49413;DHT22;35493;50.276;9.372;2023-01-13T07:15:55;8.90;87.20
49413;DHT22;35493;50.276;9.372;2023-01-13T07:18:22;8.90;87.70
49413;DHT22;35493;50.276;9.372;2023-01-13T07:20:53;8.90;87.60
49413;DHT22;35493;50.276;9.372;2023-01-13T07:23:20;8.90;87.70
49413;DHT22;35493;50.276;9.372;2023-01-13T07:25:49;8.90;87.50
49413;DHT22;35493;50.276;9.372;2023-01-13T07:28:16;8.80;87.60
49413;DHT22;35493;50.276;9.372;2023-01-13T07:30:43;8.80;87.90
49413;DHT22;35493;50.276;9.372;2023-01-13T07:33:10;8.80;87.90
49413;DHT22;35493;50.276;9.372;2023-01-13T07:35:36;8.80;87.80
49413;DHT22;35493;50.276;9.372;2023-01-13T07:38:03;8.80;87.50
49413;DHT22;35493;50.276;9.372;2023-01-13T07:40:30;8.80;87.50
49413;DHT22;35493;50.276;9.372;2023-01-13T07:42:58;8.90;87.30
49413;DHT22;35493;50.276;9.372;2023-01-13T07:45:43;8.80;87.20
49413;DHT22;35493;50.276;9.372;2023-01-13T07:48:11;8.70;87.20
49413;DHT22;35493;50.276;9.372;2023-01-13T07:50:38;8.80;87.10
49413;DHT22;35493;50.276;9.372;2023-01-13T07:53:06;8.80;87.10
49413;DHT22;35493;50.276;9.372;2023-01-13T07:55:33;8.70;87.10
49413;DHT22;35493;50.276;9.372;2023-01-13T07:58:01;8.70;87.30
49413;DHT22;35493;50.276;9.372;2023-01-13T08:00:28;8.70;87.30
49413;DHT22;35493;50.276;9.372;2023-01-13T08:02:55;8.70;87.30
49413;DHT22;35493;50.276;9.372;2023-01-13T08:05:22;8.80;87.20
49413;DHT22;35493;50.276;9.372;2023-01-13T08:07:49;8.80;87.10
49413;DHT22;35493;50.276;9.372;2023-01-13T08:10:16;8.70;87.40
49413;DHT22;35493;50.276;9.372;2023-01-13T08:12:43;8.70;87.70
49413;DHT22;35493;50.276;9.372;2023-01-13T08:15:43;8.60;87.80
49413;DHT22;35493;50.276;9.372;2023-01-13T08:18:11;8.60;87.90
49413;DHT22;35493;50.276;9.372;2023-01-13T08:20:38;8.60;88.00
49413;DHT22;35493;50.276;9.372;2023-01-13T08:23:05;8.60;88.10
49413;DHT22;35493;50.276;9.372;2023-01-13T08:25:32;8.60;88.20
49413;DHT22;35493;50.276;9.372;2023-01-13T08:27:59;8.70;88.10
49413;DHT22;35493;50.276;9.372;2023-01-13T08:30:27;8.70;88.10
49413;DHT22;35493;50.276;9.372;2023-01-13T08:32:55;8.70;88.10
49413;DHT22;35493;50.276;9.372;2023-01-13T08:35:22;8.70;88.10
49413;DHT22;35493;50.276;9.372;2023-01-13T08:37:50;8.70;88.00
49413;DHT22;35493;50.276;9.372;2023-01-13T08:40:18;8.80;88.00
49413;DHT22;35493;50.276;9.372;2023-01-13T08:42:45;8.70;88.20
49413;DHT22;35493;50.276;9.372;2023-01-13T08:45:13;8.80;88.00
49413;DHT22;35493;50.276;9.372;2023-01-13T08:47:40;8.80;88.20
49413;DHT22;35493;50.276;9.372;2023-01-13T08:50:09;8.70;88.40
49413;DHT22;35493;50.276;9.372;2023-01-13T08:52:36;8.80;88.30
49413;DHT22;35493;50.276;9.372;2023-01-13T08:55:04;8.80;88.20
49413;DHT22;35493;50.276;9.372;2023-01-13T08:57:31;8.80;87.90
49413;DHT22;35493;50.276;9.372;2023-01-13T08:59:58;8.80;87.90
49413;DHT22;35493;50.276;9.372;2023-01-13T09:02:25;8.80;88.00
49413;DHT22;35493;50.276;9.372;2023-01-13T09:04:52;8.80;87.90
49413;DHT22;35493;50.276;9.372;2023-01-13T09:07:21;8.90;87.90
49413;DHT22;35493;50.276;9.372;2023-01-13T09:09:48;8.90;87.70
49413;DHT22;35493;50.276;9.372;2023-01-13T09:12:16;8.90;87.50
49413;DHT22;35493;50.276;9.372;2023-01-13T09:15:02;8.90;87.50
49413;DHT22;35493;50.276;9.372;2023-01-13T09:17:31;8.90;87.40
49413;DHT22;35493;50.276;9.372;2023-01-13T09:19:57;8.90;87.20
49413;DHT22;35493;50.276;9.372;2023-01-13T09:22:26;8.90;87.20
49413;DHT22;35493;50.276;9.372;2023-01-13T09:24:53;9.00;87.30
49413;DHT22;35493;50.276;9.372;2023-01-13T09:27:21;9.00;87.30
49413;DHT22;35493;50.276;9.372;2023-01-13T09:29:48;9.00;87.30
49413;DHT22;35493;50.276;9.372;2023-01-13T09:32:16;9.00;87.20
49413;DHT22;35493;50.276;9.372;2023-01-13T09:34:43;9.00;87.30
49413;DHT22;35493;50.276;9.372;2023-01-13T09:37:26;8.90;87.30
49413;DHT22;35493;50.276;9.372;2023-01-13T09:39:53;8.90;87.40
49413;DHT22;35493;50.276;9.372;2023-01-13T09:42:25;8.90;87.40
49413;DHT22;35493;50.276;9.372;2023-01-13T09:45:14;8.90;87.40
49413;DHT22;35493;50.276;9.372;2023-01-13T09:47:48;8.90;87.10
49413;DHT22;35493;50.276;9.372;2023-01-13T09:50:22;8.90;87.10
49413;DHT22;35493;50.276;9.372;2023-01-13T09:52:52;8.90;87.00
49413;DHT22;35493;50.276;9.372;2023-01-13T09:55:24;8.90;87.00
49413;DHT22;35493;50.276;9.372;2023-01-13T09:57:53;8.90;86.80
49413;DHT22;35493;50.276;9.372;2023-01-13T10:00:22;8.90;86.80
49413;DHT22;35493;50.276;9.372;2023-01-13T10:03:12;9.00;86.60
49413;DHT22;35493;50.276;9.372;2023-01-13T10:05:47;9.10;86.60
49413;DHT22;35493;50.276;9.372;2023-01-13T10:08:21;9.10;86.50
49413;DHT22;35493;50.276;9.372;2023-01-13T10:10:51;9.10;86.40
49413;DHT22;35493;50.276;9.372;2023-01-13T10:13:21;9.20;86.50
49413;DHT22;35493;50.276;9.372;2023-01-13T10:16:01;9.20;86.40
49413;DHT22;35493;50.276;9.372;2023-01-13T10:18:38;9.20;86.20
49413;DHT22;35493;50.276;9.372;2023-01-13T10:21:18;9.30;86.20
49413;DHT22;35493;50.276;9.372;2023-01-13T10:23:55;9.30;86.10
49413;DHT22;35493;50.276;9.372;2023-01-13T10:26:37;9.30;86.00
49413;DHT22;35493;50.276;9.372;2023-01-13T10:29:17;9.40;85.90
49413;DHT22;35493;50.276;9.372;2023-01-13T10:31:45;9.40;85.70
49413;DHT22;35493;50.276;9.372;2023-01-13T10:34:12;9.40;85.60
49413;DHT22;35493;50.276;9.372;2023-01-13T10:36:52;9.50;85.60
49413;DHT22;35493;50.276;9.372;2023-01-13T10:39:21;9.50;85.40
49413;DHT22;35493;50.276;9.372;2023-01-13T10:41:48;9.40;85.30
49413;DHT22;35493;50.276;9.372;2023-01-13T10:44:16;9.40;85.00
49413;DHT22;35493;50.276;9.372;2023-01-13T10:46:52;9.40;85.00
49413;DHT22;35493;50.276;9.372;2023-01-13T10:49:27;9.40;85.00
49413;DHT22;35493;50.276;9.372;2023-01-13T10:51:55;9.40;84.80
49413;DHT22;35493;50.276;9.372;2023-01-13T10:54:25;9.50;84.70
49413;DHT22;35493;50.276;9.372;2023-01-13T10:57:13;9.50;84.30
49413;DHT22;35493;50.276;9.372;2023-01-13T10:59:41;9.50;84.40
49413;DHT22;35493;50.276;9.372;2023-01-13T11:02:26;9.50;84.30
49413;DHT22;35493;50.276;9.372;2023-01-13T11:05:00;9.50;84.30
49413;DHT22;35493;50.276;9.372;2023-01-13T11:07:32;9.50;84.10
49413;DHT22;35493;50.276;9.372;2023-01-13T11:10:14;9.50;84.10
49413;DHT22;35493;50.276;9.372;2023-01-13T11:12:47;9.40;83.90
49413;DHT22;35493;50.276;9.372;2023-01-13T11:15:20;9.50;83.90
49413;DHT22;35493;50.276;9.372;2023-01-13T11:17:51;9.50;84.00
49413;DHT22;35493;50.276;9.372;2023-01-13T11:20:29;9.50;83.90
49413;DHT22;35493;50.276;9.372;2023-01-13T11:23:02;9.50;83.70
49413;DHT22;35493;50.276;9.372;2023-01-13T11:25:33;9.60;83.70
49413;DHT22;35493;50.276;9.372;2023-01-13T11:31:04;9.50;83.50
49413;DHT22;35493;50.276;9.372;2023-01-13T11:33:39;9.50;83.30
49413;DHT22;35493;50.276;9.372;2023-01-13T11:36:10;9.50;83.60
49413;DHT22;35493;50.276;9.372;2023-01-13T11:38:43;9.50;83.10
49413;DHT22;35493;50.276;9.372;2023-01-13T11:41:22;9.40;83.40
49413;DHT22;35493;50.276;9.372;2023-01-13T11:43:53;9.40;83.30
49413;DHT22;35493;50.276;9.372;2023-01-13T11:46:23;9.40;83.20
49413;DHT22;35493;50.276;9.372;2023-01-13T11:48:51;9.40;83.20
49413;DHT22;35493;50.276;9.372;2023-01-13T11:51:28;9.40;82.60
49413;DHT22;35493;50.276;9.372;2023-01-13T11:54:12;9.30;82.80
49413;DHT22;35493;50.276;9.372;2023-01-13T11:57:09;9.30;82.50
49413;DHT22;35493;50.276;9.372;2023-01-13T11:59:50;9.20;82.60
49413;DHT22;35493;50.276;9.372;2023-01-13T12:02:31;9.20;83.10
49413;DHT22;35493;50.276;9.372;2023-01-13T12:05:10;9.20;82.80
49413;DHT22;35493;50.276;9.372;2023-01-13T12:07:48;9.10;82.90
49413;DHT22;35493;50.276;9.372;2023-01-13T12:10:37;9.10;83.00
49413;DHT22;35493;50.276;9.372;2023-01-13T12:13:18;9.00;83.10
49413;DHT22;35493;50.276;9.372;2023-01-13T12:16:17;8.80;83.50
49413;DHT22;35493;50.276;9.372;2023-01-13T12:19:10;8.70;83.60
49413;DHT22;35493;50.276;9.372;2023-01-13T12:21:51;8.80;83.90
49413;DHT22;35493;50.276;9.372;2023-01-13T12:24:21;8.80;83.60
49413;DHT22;35493;50.276;9.372;2023-01-13T12:26:55;8.70;83.80
49413;DHT22;35493;50.276;9.372;2023-01-13T12:29:28;8.80;84.40
49413;DHT22;35493;50.276;9.372;2023-01-13T12:31:56;8.80;84.30
49413;DHT22;35493;50.276;9.372;2023-01-13T12:34:36;8.80;84.50
49413;DHT22;35493;50.276;9.372;2023-01-13T12:37:09;8.90;84.30
49413;DHT22;35493;50.276;9.372;2023-01-13T12:39:49;8.80;84.30
49413;DHT22;35493;50.276;9.372;2023-01-13T12:42:22;8.80;84.50
49413;DHT22;35493;50.276;9.372;2023-01-13T12:45:32;8.90;84.50
49413;DHT22;35493;50.276;9.372;2023-01-13T12:47:59;8.90;84.60
49413;DHT22;35493;50.276;9.372;2023-01-13T12:50:37;8.90;84.70
49413;DHT22;35493;50.276;9.372;2023-01-13T12:53:39;8.90;84.60
49413;DHT22;35493;50.276;9.372;2023-01-13T12:56:21;8.90;84.70
49413;DHT22;35493;50.276;9.372;2023-01-13T12:58:50;8.90;84.80
49413;DHT22;35493;50.276;9.372;2023-01-13T13:01:33;9.00;84.90
49413;DHT22;35493;50.276;9.372;2023-01-13T13:04:08;9.00;85.00
49413;DHT22;35493;50.276;9.372;2023-01-13T13:06:36;9.10;85.00
49413;DHT22;35493;50.276;9.372;2023-01-13T13:09:05;9.10;85.00
49413;DHT22;35493;50.276;9.372;2023-01-13T13:11:43;9.00;84.90
49413;DHT22;35493;50.276;9.372;2023-01-13T13:14:59;9.10;84.80
49413;DHT22;35493;50.276;9.372;2023-01-13T13:17:41;9.10;84.70
49413;DHT22;35493;50.276;9.372;2023-01-13T13:26:20;9.10;84.30
49413;DHT22;35493;50.276;9.372;2023-01-13T13:29:05;9.10;83.70
49413;DHT22;35493;50.276;9.372;2023-01-13T13:31:44;9.10;83.50
49413;DHT22;35493;50.276;9.372;2023-01-13T13:34:25;9.20;82.80
49413;DHT22;35493;50.276;9.372;2023-01-13T13:37:08;9.20;82.40
49413;DHT22;35493;50.276;9.372;2023-01-13T13:39:40;9.10;82.60
49413;DHT22;35493;50.276;9.372;2023-01-13T13:42:26;9.10;82.30
49413;DHT22;35493;50.276;9.372;2023-01-13T13:45:15;9.10;82.80
49413;DHT22;35493;50.276;9.372;2023-01-13T13:48:00;9.10;82.10
49413;DHT22;35493;50.276;9.372;2023-01-13T13:50:48;9.10;81.80
49413;DHT22;35493;50.276;9.372;2023-01-13T13:53:17;9.10;81.60
49413;DHT22;35493;50.276;9.372;2023-01-13T13:55:52;9.10;82.50
49413;DHT22;35493;50.276;9.372;2023-01-13T13:58:21;9.10;82.20
49413;DHT22;35493;50.276;9.372;2023-01-13T14:00:48;9.10;81.90
49413;DHT22;35493;50.276;9.372;2023-01-13T14:03:22;9.10;82.10
49413;DHT22;35493;50.276;9.372;2023-01-13T14:05:57;9.00;82.20
49413;DHT22;35493;50.276;9.372;2023-01-13T14:08:24;9.00;82.10
49413;DHT22;35493;50.276;9.372;2023-01-13T14:10:52;9.00;81.90
49413;DHT22;35493;50.276;9.372;2023-01-13T14:13:20;9.00;82.10
49413;DHT22;35493;50.276;9.372;2023-01-13T14:15:49;9.00;82.50
49413;DHT22;35493;50.276;9.372;2023-01-13T14:18:20;8.90;82.00
49413;DHT22;35493;50.276;9.372;2023-01-13T14:20:52;8.90;82.40
49413;DHT22;35493;50.276;9.372;2023-01-13T14:23:25;8.90;82.40
49413;DHT22;35493;50.276;9.372;2023-01-13T14:25:52;8.80;82.40
49413;DHT22;35493;50.276;9.372;2023-01-13T14:28:25;8.70;82.40
49413;DHT22;35493;50.276;9.372;2023-01-13T14:30:54;8.70;82.60
49413;DHT22;35493;50.276;9.372;2023-01-13T14:33:25;8.70;82.70
49413;DHT22;35493;50.276;9.372;2023-01-13T14:36:05;8.60;82.90
49413;DHT22;35493;50.276;9.372;2023-01-13T14:38:34;8.60;82.90
49413;DHT22;35493;50.276;9.372;2023-01-13T14:43:53;8.50;83.00
49413;DHT22;35493;50.276;9.372;2023-01-13T14:46:21;8.50;83.20
49413;DHT22;35493;50.276;9.372;2023-01-13T14:48:52;8.50;83.20
49413;DHT22;35493;50.276;9.372;2023-01-13T14:51:26;8.40;83.30
49413;DHT22;35493;50.276;9.372;2023-01-13T14:53:55;8.40;83.40
49413;DHT22;35493;50.276;9.372;2023-01-13T14:56:38;8.40;83.50
49413;DHT22;35493;50.276;9.372;2023-01-13T14:59:31;8.30;83.70
49413;DHT22;35493;50.276;9.372;2023-01-13T15:01:59;8.50;83.90
49413;DHT22;35493;50.276;9.372;2023-01-13T15:04:31;8.40;83.90
49413;DHT22;35493;50.276;9.372;2023-01-13T15:06:59;8.50;83.90
49413;DHT22;35493;50.276;9.372;2023-01-13T15:09:34;8.40;83.80
49413;DHT22;35493;50.276;9.372;2023-01-13T15:12:15;8.40;83.90
49413;DHT22;35493;50.276;9.372;2023-01-13T15:14:42;8.40;83.90
49413;DHT22;35493;50.276;9.372;2023-01-13T15:17:15;8.40;84.00
49413;DHT22;35493;50.276;9.372;2023-01-13T15:19:43;8.50;83.90
49413;DHT22;35493;50.276;9.372;2023-01-13T15:22:10;8.50;84.10
49413;DHT22;35493;50.276;9.372;2023-01-13T15:24:38;8.50;84.00
49413;DHT22;35493;50.276;9.372;2023-01-13T15:27:15;8.40;84.00
49413;DHT22;35493;50.276;9.372;2023-01-13T15:29:43;8.40;83.90
49413;DHT22;35493;50.276;9.372;2023-01-13T15:32:16;8.40;84.10
49413;DHT22;35493;50.276;9.372;2023-01-13T15:34:44;8.40;84.20
49413;DHT22;35493;50.276;9.372;2023-01-13T15:37:12;8.40;84.10
49413;DHT22;35493;50.276;9.372;2023-01-13T15:39:40;8.40;84.20
49413;DHT22;35493;50.276;9.372;2023-01-13T15:42:10;8.40;84.00
49413;DHT22;35493;50.276;9.372;2023-01-13T15:44:55;8.30;84.20
49413;DHT22;35493;50.276;9.372;2023-01-13T15:47:39;8.40;84.20
49413;DHT22;35493;50.276;9.372;2023-01-13T15:50:12;8.30;84.00
49413;DHT22;35493;50.276;9.372;2023-01-13T15:52:39;8.30;83.90
49413;DHT22;35493;50.276;9.372;2023-01-13T15:55:08;8.40;83.80
49413;DHT22;35493;50.276;9.372;2023-01-13T15:57:37;8.30;83.80
49413;DHT22;35493;50.276;9.372;2023-01-13T16:00:11;8.30;83.80
49413;DHT22;35493;50.276;9.372;2023-01-13T16:02:38;8.30;83.50
49413;DHT22;35493;50.276;9.372;2023-01-13T16:05:06;8.30;83.90
49413;DHT22;35493;50.276;9.372;2023-01-13T16:07:32;8.40;83.50
49413;DHT22;35493;50.276;9.372;2023-01-13T16:09:59;8.30;83.30
49413;DHT22;35493;50.276;9.372;2023-01-13T16:12:29;8.40;83.20
49413;DHT22;35493;50.276;9.372;2023-01-13T16:14:56;8.40;83.10
49413;DHT22;35493;50.276;9.372;2023-01-13T16:17:24;8.40;83.20
49413;DHT22;35493;50.276;9.372;2023-01-13T16:19:54;8.40;83.40
49413;DHT22;35493;50.276;9.372;2023-01-13T16:22:21;8.40;83.40
49413;DHT22;35493;50.276;9.372;2023-01-13T16:24:48;8.40;83.30
49413;DHT22;35493;50.276;9.372;2023-01-13T16:27:16;8.40;83.40
49413;DHT22;35493;50.276;9.372;2023-01-13T16:29:46;8.40;83.50
49413;DHT22;35493;50.276;9.372;2023-01-13T16:32:13;8.30;83.40